sensor_id;sensor_type;location;lat;lon;timestamp;P1;durP1;ratioP1;P2;durP2;ratioP2
4885;SDS011;2457;51.788;6.136;2022-08-03T00:02:08;5.97;;;1.90;;
4885;SDS011;2457;51.788;6.136;2022-08-03T00:04:36;3.90;;;1.20;;
4885;SDS011;2457;51.788;6.136;2022-08-03T00:07:03;6.43;;;1.93;;
4885;SDS011;2457;51.788;6.136;2022-08-03T00:09:30;4.80;;;1.60;;
4885;SDS011;2457;51.788;6.136;2022-08-03T00:11:57;12.57;;;1.80;;
4885;SDS011;2457;51.788;6.136;2022-08-03T00:14:25;13.20;;;1.50;;
4885;SDS011;2457;51.788;6.136;2022-08-03T00:16:52;12.57;;;1.90;;
4885;SDS011;2457;51.788;6.136;2022-08-03T00:19:19;6.80;;;1.83;;
4885;SDS011;2457;51.788;6.136;2022-08-03T00:21:46;5.97;;;1.97;;
4885;SDS011;2457;51.788;6.136;2022-08-03T00:24:14;6.97;;;1.90;;
4885;SDS011;2457;51.788;6.136;2022-08-03T00:26:41;9.33;;;2.30;;
4885;SDS011;2457;51.788;6.136;2022-08-03T00:29:08;8.57;;;1.90;;
4885;SDS011;2457;51.788;6.136;2022-08-03T00:31:36;4.17;;;1.60;;
4885;SDS011;2457;51.788;6.136;2022-08-03T00:34:03;7.70;;;1.63;;
4885;SDS011;2457;51.788;6.136;2022-08-03T00:36:31;4.60;;;1.83;;
4885;SDS011;2457;51.788;6.136;2022-08-03T00:38:58;5.93;;;1.87;;
4885;SDS011;2457;51.788;6.136;2022-08-03T00:41:25;4.80;;;1.63;;
4885;SDS011;2457;51.788;6.136;2022-08-03T00:43:53;8.20;;;2.00;;
4885;SDS011;2457;51.788;6.136;2022-08-03T00:46:20;7.87;;;2.70;;
4885;SDS011;2457;51.788;6.136;2022-08-03T00:48:51;9.70;;;1.57;;
4885;SDS011;2457;51.788;6.136;2022-08-03T00:51:19;5.60;;;1.97;;
4885;SDS011;2457;51.788;6.136;2022-08-03T00:53:48;5.70;;;1.63;;
4885;SDS011;2457;51.788;6.136;2022-08-03T00:56:15;7.10;;;1.90;;
4885;SDS011;2457;51.788;6.136;2022-08-03T00:58:43;6.70;;;1.70;;
4885;SDS011;2457;51.788;6.136;2022-08-03T01:01:11;5.90;;;1.60;;
4885;SDS011;2457;51.788;6.136;2022-08-03T01:03:38;6.43;;;2.27;;
4885;SDS011;2457;51.788;6.136;2022-08-03T01:06:11;5.57;;;1.90;;
4885;SDS011;2457;51.788;6.136;2022-08-03T01:11:27;7.17;;;1.87;;
4885;SDS011;2457;51.788;6.136;2022-08-03T01:13:55;6.43;;;1.83;;
4885;SDS011;2457;51.788;6.136;2022-08-03T01:16:28;12.43;;;2.17;;
4885;SDS011;2457;51.788;6.136;2022-08-03T01:19:11;4.63;;;1.50;;
4885;SDS011;2457;51.788;6.136;2022-08-03T01:21:39;9.67;;;1.87;;
4885;SDS011;2457;51.788;6.136;2022-08-03T01:26:52;5.30;;;1.80;;
4885;SDS011;2457;51.788;6.136;2022-08-03T01:32:14;11.87;;;2.33;;
4885;SDS011;2457;51.788;6.136;2022-08-03T01:34:46;5.30;;;2.03;;
4885;SDS011;2457;51.788;6.136;2022-08-03T01:37:15;8.40;;;2.07;;
4885;SDS011;2457;51.788;6.136;2022-08-03T01:39:41;7.40;;;1.77;;
4885;SDS011;2457;51.788;6.136;2022-08-03T01:42:10;6.50;;;1.90;;
4885;SDS011;2457;51.788;6.136;2022-08-03T01:44:40;9.80;;;2.13;;
4885;SDS011;2457;51.788;6.136;2022-08-03T01:47:07;5.73;;;1.80;;
4885;SDS011;2457;51.788;6.136;2022-08-03T01:49:37;4.50;;;1.90;;
4885;SDS011;2457;51.788;6.136;2022-08-03T01:52:05;5.57;;;1.90;;
4885;SDS011;2457;51.788;6.136;2022-08-03T01:54:34;7.00;;;1.80;;
4885;SDS011;2457;51.788;6.136;2022-08-03T01:57:02;7.57;;;1.50;;
4885;SDS011;2457;51.788;6.136;2022-08-03T01:59:31;6.03;;;2.23;;
4885;SDS011;2457;51.788;6.136;2022-08-03T02:01:59;10.17;;;2.13;;
4885;SDS011;2457;51.788;6.136;2022-08-03T02:04:27;7.53;;;1.67;;
4885;SDS011;2457;51.788;6.136;2022-08-03T02:06:55;6.47;;;1.93;;
4885;SDS011;2457;51.788;6.136;2022-08-03T02:09:23;10.10;;;1.80;;
4885;SDS011;2457;51.788;6.136;2022-08-03T02:11:51;5.57;;;2.10;;
4885;SDS011;2457;51.788;6.136;2022-08-03T02:14:19;4.90;;;2.23;;
4885;SDS011;2457;51.788;6.136;2022-08-03T02:16:47;5.53;;;2.23;;
4885;SDS011;2457;51.788;6.136;2022-08-03T02:19:15;7.13;;;2.00;;
4885;SDS011;2457;51.788;6.136;2022-08-03T02:21:43;8.00;;;1.80;;
4885;SDS011;2457;51.788;6.136;2022-08-03T02:24:11;6.90;;;2.00;;
4885;SDS011;2457;51.788;6.136;2022-08-03T02:26:39;8.23;;;2.57;;
4885;SDS011;2457;51.788;6.136;2022-08-03T02:29:12;11.20;;;1.80;;
4885;SDS011;2457;51.788;6.136;2022-08-03T02:31:39;5.63;;;2.07;;
4885;SDS011;2457;51.788;6.136;2022-08-03T02:34:11;5.37;;;2.13;;
4885;SDS011;2457;51.788;6.136;2022-08-03T02:36:37;6.50;;;2.17;;
4885;SDS011;2457;51.788;6.136;2022-08-03T02:39:05;11.73;;;2.67;;
4885;SDS011;2457;51.788;6.136;2022-08-03T02:41:37;9.67;;;2.67;;
4885;SDS011;2457;51.788;6.136;2022-08-03T02:44:02;13.77;;;2.77;;
4885;SDS011;2457;51.788;6.136;2022-08-03T02:46:32;8.13;;;2.60;;
4885;SDS011;2457;51.788;6.136;2022-08-03T02:48:59;7.10;;;2.30;;
4885;SDS011;2457;51.788;6.136;2022-08-03T02:51:29;12.40;;;2.30;;
4885;SDS011;2457;51.788;6.136;2022-08-03T02:53:56;5.30;;;2.47;;
4885;SDS011;2457;51.788;6.136;2022-08-03T02:56:25;10.77;;;2.53;;
4885;SDS011;2457;51.788;6.136;2022-08-03T02:58:53;7.63;;;2.30;;
4885;SDS011;2457;51.788;6.136;2022-08-03T03:01:21;6.63;;;2.07;;
4885;SDS011;2457;51.788;6.136;2022-08-03T03:03:49;6.13;;;2.23;;
4885;SDS011;2457;51.788;6.136;2022-08-03T03:06:17;7.23;;;2.20;;
4885;SDS011;2457;51.788;6.136;2022-08-03T03:08:45;4.40;;;1.70;;
4885;SDS011;2457;51.788;6.136;2022-08-03T03:11:14;12.93;;;2.57;;
4885;SDS011;2457;51.788;6.136;2022-08-03T03:13:42;7.50;;;2.10;;
4885;SDS011;2457;51.788;6.136;2022-08-03T03:16:10;7.87;;;2.00;;
4885;SDS011;2457;51.788;6.136;2022-08-03T03:18:38;14.90;;;2.73;;
4885;SDS011;2457;51.788;6.136;2022-08-03T03:21:06;7.77;;;1.97;;
4885;SDS011;2457;51.788;6.136;2022-08-03T03:23:34;9.10;;;2.60;;
4885;SDS011;2457;51.788;6.136;2022-08-03T03:26:03;6.53;;;2.10;;
4885;SDS011;2457;51.788;6.136;2022-08-03T03:28:30;8.30;;;2.73;;
4885;SDS011;2457;51.788;6.136;2022-08-03T03:30:58;11.83;;;2.83;;
4885;SDS011;2457;51.788;6.136;2022-08-03T03:33:26;5.93;;;2.40;;
4885;SDS011;2457;51.788;6.136;2022-08-03T03:35:53;6.70;;;2.50;;
4885;SDS011;2457;51.788;6.136;2022-08-03T03:38:21;6.03;;;2.10;;
4885;SDS011;2457;51.788;6.136;2022-08-03T03:40:48;8.70;;;2.93;;
4885;SDS011;2457;51.788;6.136;2022-08-03T03:43:16;6.90;;;2.83;;
4885;SDS011;2457;51.788;6.136;2022-08-03T03:45:46;6.50;;;2.70;;
4885;SDS011;2457;51.788;6.136;2022-08-03T03:48:14;6.33;;;2.70;;
4885;SDS011;2457;51.788;6.136;2022-08-03T03:50:42;7.63;;;2.47;;
4885;SDS011;2457;51.788;6.136;2022-08-03T03:53:10;8.27;;;3.07;;
4885;SDS011;2457;51.788;6.136;2022-08-03T03:55:37;5.90;;;2.40;;
4885;SDS011;2457;51.788;6.136;2022-08-03T03:58:05;8.90;;;3.00;;
4885;SDS011;2457;51.788;6.136;2022-08-03T04:00:33;10.27;;;3.00;;
4885;SDS011;2457;51.788;6.136;2022-08-03T04:03:00;8.40;;;3.10;;
4885;SDS011;2457;51.788;6.136;2022-08-03T04:05:27;8.97;;;2.60;;
4885;SDS011;2457;51.788;6.136;2022-08-03T04:08:13;6.70;;;2.70;;
4885;SDS011;2457;51.788;6.136;2022-08-03T04:11:01;5.30;;;2.50;;
4885;SDS011;2457;51.788;6.136;2022-08-03T04:13:29;10.80;;;3.33;;
4885;SDS011;2457;51.788;6.136;2022-08-03T04:15:56;8.43;;;3.23;;
4885;SDS011;2457;51.788;6.136;2022-08-03T04:18:25;7.63;;;3.20;;
4885;SDS011;2457;51.788;6.136;2022-08-03T04:20:54;7.70;;;3.00;;
4885;SDS011;2457;51.788;6.136;2022-08-03T04:23:21;12.00;;;3.23;;
4885;SDS011;2457;51.788;6.136;2022-08-03T04:25:50;7.27;;;2.97;;
4885;SDS011;2457;51.788;6.136;2022-08-03T04:28:18;7.53;;;2.80;;
4885;SDS011;2457;51.788;6.136;2022-08-03T04:30:46;11.53;;;2.73;;
4885;SDS011;2457;51.788;6.136;2022-08-03T04:33:14;12.80;;;3.10;;
4885;SDS011;2457;51.788;6.136;2022-08-03T04:35:42;9.47;;;3.03;;
4885;SDS011;2457;51.788;6.136;2022-08-03T04:38:11;9.73;;;3.07;;
4885;SDS011;2457;51.788;6.136;2022-08-03T04:40:40;6.60;;;3.33;;
4885;SDS011;2457;51.788;6.136;2022-08-03T04:43:08;10.37;;;3.53;;
4885;SDS011;2457;51.788;6.136;2022-08-03T04:45:36;7.70;;;3.40;;
4885;SDS011;2457;51.788;6.136;2022-08-03T04:48:04;11.13;;;3.10;;
4885;SDS011;2457;51.788;6.136;2022-08-03T04:50:31;12.53;;;3.40;;
4885;SDS011;2457;51.788;6.136;2022-08-03T04:52:59;11.77;;;3.40;;
4885;SDS011;2457;51.788;6.136;2022-08-03T04:55:32;10.63;;;3.30;;
4885;SDS011;2457;51.788;6.136;2022-08-03T04:57:56;11.73;;;3.87;;
4885;SDS011;2457;51.788;6.136;2022-08-03T05:00:23;8.70;;;3.40;;
4885;SDS011;2457;51.788;6.136;2022-08-03T05:02:52;10.87;;;3.90;;
4885;SDS011;2457;51.788;6.136;2022-08-03T05:05:19;9.30;;;3.53;;
4885;SDS011;2457;51.788;6.136;2022-08-03T05:07:47;11.50;;;3.57;;
4885;SDS011;2457;51.788;6.136;2022-08-03T05:10:14;8.97;;;3.73;;
4885;SDS011;2457;51.788;6.136;2022-08-03T05:12:41;12.57;;;3.63;;
4885;SDS011;2457;51.788;6.136;2022-08-03T05:15:09;8.83;;;3.97;;
4885;SDS011;2457;51.788;6.136;2022-08-03T05:17:37;7.13;;;4.10;;
4885;SDS011;2457;51.788;6.136;2022-08-03T05:20:04;12.13;;;3.50;;
4885;SDS011;2457;51.788;6.136;2022-08-03T05:22:31;10.17;;;3.73;;
4885;SDS011;2457;51.788;6.136;2022-08-03T05:24:59;9.83;;;4.00;;
4885;SDS011;2457;51.788;6.136;2022-08-03T05:27:27;14.67;;;4.10;;
4885;SDS011;2457;51.788;6.136;2022-08-03T05:29:54;11.27;;;4.00;;
4885;SDS011;2457;51.788;6.136;2022-08-03T05:32:22;8.00;;;4.10;;
4885;SDS011;2457;51.788;6.136;2022-08-03T05:34:49;11.10;;;4.40;;
4885;SDS011;2457;51.788;6.136;2022-08-03T05:37:16;7.83;;;3.93;;
4885;SDS011;2457;51.788;6.136;2022-08-03T05:39:43;9.23;;;4.27;;
4885;SDS011;2457;51.788;6.136;2022-08-03T05:42:13;9.30;;;3.87;;
4885;SDS011;2457;51.788;6.136;2022-08-03T05:44:39;14.20;;;4.67;;
4885;SDS011;2457;51.788;6.136;2022-08-03T05:47:07;8.70;;;4.17;;
4885;SDS011;2457;51.788;6.136;2022-08-03T05:49:34;8.50;;;4.30;;
4885;SDS011;2457;51.788;6.136;2022-08-03T05:52:02;10.30;;;4.20;;
4885;SDS011;2457;51.788;6.136;2022-08-03T05:54:29;7.10;;;3.80;;
4885;SDS011;2457;51.788;6.136;2022-08-03T05:56:56;9.43;;;3.80;;
4885;SDS011;2457;51.788;6.136;2022-08-03T05:59:23;9.40;;;4.00;;
4885;SDS011;2457;51.788;6.136;2022-08-03T06:01:51;11.60;;;3.70;;
4885;SDS011;2457;51.788;6.136;2022-08-03T06:04:18;7.03;;;2.93;;
4885;SDS011;2457;51.788;6.136;2022-08-03T06:06:45;11.83;;;3.13;;
4885;SDS011;2457;51.788;6.136;2022-08-03T06:09:13;11.63;;;3.63;;
4885;SDS011;2457;51.788;6.136;2022-08-03T06:11:40;6.53;;;3.27;;
4885;SDS011;2457;51.788;6.136;2022-08-03T06:14:08;12.60;;;3.77;;
4885;SDS011;2457;51.788;6.136;2022-08-03T06:16:35;6.70;;;3.20;;
4885;SDS011;2457;51.788;6.136;2022-08-03T06:19:02;5.30;;;2.67;;
4885;SDS011;2457;51.788;6.136;2022-08-03T06:21:29;8.47;;;3.30;;
4885;SDS011;2457;51.788;6.136;2022-08-03T06:23:57;11.90;;;3.27;;
4885;SDS011;2457;51.788;6.136;2022-08-03T06:26:25;7.63;;;3.00;;
4885;SDS011;2457;51.788;6.136;2022-08-03T06:28:53;9.03;;;2.90;;
4885;SDS011;2457;51.788;6.136;2022-08-03T06:31:21;8.20;;;2.87;;
4885;SDS011;2457;51.788;6.136;2022-08-03T06:33:49;9.87;;;2.87;;
4885;SDS011;2457;51.788;6.136;2022-08-03T06:36:16;6.20;;;2.33;;
4885;SDS011;2457;51.788;6.136;2022-08-03T06:38:43;8.07;;;2.60;;
4885;SDS011;2457;51.788;6.136;2022-08-03T06:41:11;7.10;;;2.40;;
4885;SDS011;2457;51.788;6.136;2022-08-03T06:43:38;7.17;;;2.50;;
4885;SDS011;2457;51.788;6.136;2022-08-03T06:46:05;9.50;;;2.80;;
4885;SDS011;2457;51.788;6.136;2022-08-03T06:48:33;8.87;;;2.40;;
4885;SDS011;2457;51.788;6.136;2022-08-03T06:51:00;8.90;;;2.23;;
4885;SDS011;2457;51.788;6.136;2022-08-03T06:53:27;5.77;;;2.00;;
4885;SDS011;2457;51.788;6.136;2022-08-03T06:55:54;11.00;;;2.60;;
4885;SDS011;2457;51.788;6.136;2022-08-03T06:58:22;12.13;;;2.13;;
4885;SDS011;2457;51.788;6.136;2022-08-03T07:00:49;5.27;;;1.60;;
4885;SDS011;2457;51.788;6.136;2022-08-03T07:03:16;12.67;;;2.50;;
4885;SDS011;2457;51.788;6.136;2022-08-03T07:05:43;4.20;;;1.87;;
4885;SDS011;2457;51.788;6.136;2022-08-03T07:08:15;11.10;;;2.40;;
4885;SDS011;2457;51.788;6.136;2022-08-03T07:10:42;7.13;;;1.73;;
4885;SDS011;2457;51.788;6.136;2022-08-03T07:13:09;9.27;;;2.17;;
4885;SDS011;2457;51.788;6.136;2022-08-03T07:15:38;6.07;;;1.60;;
4885;SDS011;2457;51.788;6.136;2022-08-03T07:18:05;4.60;;;1.50;;
4885;SDS011;2457;51.788;6.136;2022-08-03T07:20:32;12.10;;;2.73;;
4885;SDS011;2457;51.788;6.136;2022-08-03T07:23:00;5.80;;;1.80;;
4885;SDS011;2457;51.788;6.136;2022-08-03T07:25:27;10.20;;;1.73;;
4885;SDS011;2457;51.788;6.136;2022-08-03T07:27:54;9.10;;;1.93;;
4885;SDS011;2457;51.788;6.136;2022-08-03T07:30:22;8.23;;;2.23;;
4885;SDS011;2457;51.788;6.136;2022-08-03T07:32:49;9.30;;;2.07;;
4885;SDS011;2457;51.788;6.136;2022-08-03T07:35:16;8.13;;;2.17;;
4885;SDS011;2457;51.788;6.136;2022-08-03T07:37:44;11.00;;;1.80;;
4885;SDS011;2457;51.788;6.136;2022-08-03T07:40:11;8.60;;;2.03;;
4885;SDS011;2457;51.788;6.136;2022-08-03T07:42:38;6.47;;;1.57;;
4885;SDS011;2457;51.788;6.136;2022-08-03T07:45:06;8.00;;;1.90;;
4885;SDS011;2457;51.788;6.136;2022-08-03T07:47:33;7.20;;;1.70;;
4885;SDS011;2457;51.788;6.136;2022-08-03T07:50:01;13.83;;;2.40;;
4885;SDS011;2457;51.788;6.136;2022-08-03T07:52:28;9.40;;;1.93;;
4885;SDS011;2457;51.788;6.136;2022-08-03T07:55:15;19.37;;;2.03;;
4885;SDS011;2457;51.788;6.136;2022-08-03T07:57:42;5.80;;;1.97;;
4885;SDS011;2457;51.788;6.136;2022-08-03T08:00:14;11.20;;;2.33;;
4885;SDS011;2457;51.788;6.136;2022-08-03T08:02:41;8.30;;;1.90;;
4885;SDS011;2457;51.788;6.136;2022-08-03T08:05:09;12.83;;;2.47;;
4885;SDS011;2457;51.788;6.136;2022-08-03T08:07:36;12.57;;;2.77;;
4885;SDS011;2457;51.788;6.136;2022-08-03T08:10:05;10.20;;;2.40;;
4885;SDS011;2457;51.788;6.136;2022-08-03T08:12:32;6.53;;;1.63;;
4885;SDS011;2457;51.788;6.136;2022-08-03T08:14:59;10.33;;;1.77;;
4885;SDS011;2457;51.788;6.136;2022-08-03T08:17:27;4.90;;;1.40;;
4885;SDS011;2457;51.788;6.136;2022-08-03T08:19:54;4.77;;;1.63;;
4885;SDS011;2457;51.788;6.136;2022-08-03T08:22:21;4.80;;;1.73;;
4885;SDS011;2457;51.788;6.136;2022-08-03T08:24:48;8.27;;;2.37;;
4885;SDS011;2457;51.788;6.136;2022-08-03T08:27:16;5.40;;;1.30;;
4885;SDS011;2457;51.788;6.136;2022-08-03T08:29:43;11.70;;;1.77;;
4885;SDS011;2457;51.788;6.136;2022-08-03T08:32:11;8.10;;;2.10;;
4885;SDS011;2457;51.788;6.136;2022-08-03T08:34:40;7.20;;;1.63;;
4885;SDS011;2457;51.788;6.136;2022-08-03T08:37:07;10.30;;;1.60;;
4885;SDS011;2457;51.788;6.136;2022-08-03T08:39:34;8.93;;;1.87;;
4885;SDS011;2457;51.788;6.136;2022-08-03T08:42:02;8.00;;;1.70;;
4885;SDS011;2457;51.788;6.136;2022-08-03T08:44:29;4.50;;;1.40;;
4885;SDS011;2457;51.788;6.136;2022-08-03T08:46:56;10.17;;;2.37;;
4885;SDS011;2457;51.788;6.136;2022-08-03T08:49:25;5.97;;;1.53;;
4885;SDS011;2457;51.788;6.136;2022-08-03T08:51:53;7.80;;;1.70;;
4885;SDS011;2457;51.788;6.136;2022-08-03T08:54:22;11.00;;;1.97;;
4885;SDS011;2457;51.788;6.136;2022-08-03T08:56:50;6.90;;;1.67;;
4885;SDS011;2457;51.788;6.136;2022-08-03T08:59:18;6.73;;;2.20;;
4885;SDS011;2457;51.788;6.136;2022-08-03T09:01:46;9.40;;;1.67;;
4885;SDS011;2457;51.788;6.136;2022-08-03T09:04:13;8.63;;;1.63;;
4885;SDS011;2457;51.788;6.136;2022-08-03T09:06:40;7.50;;;1.63;;
4885;SDS011;2457;51.788;6.136;2022-08-03T09:09:07;3.40;;;1.30;;
4885;SDS011;2457;51.788;6.136;2022-08-03T09:11:35;5.67;;;1.60;;
4885;SDS011;2457;51.788;6.136;2022-08-03T09:14:02;4.20;;;1.50;;
4885;SDS011;2457;51.788;6.136;2022-08-03T09:16:30;7.17;;;1.80;;
4885;SDS011;2457;51.788;6.136;2022-08-03T09:19:02;9.70;;;1.60;;
4885;SDS011;2457;51.788;6.136;2022-08-03T09:21:27;5.87;;;1.40;;
4885;SDS011;2457;51.788;6.136;2022-08-03T09:23:56;4.03;;;1.23;;
4885;SDS011;2457;51.788;6.136;2022-08-03T09:26:25;7.30;;;1.77;;
4885;SDS011;2457;51.788;6.136;2022-08-03T09:31:37;13.00;;;1.67;;
4885;SDS011;2457;51.788;6.136;2022-08-03T09:34:05;8.70;;;1.57;;
4885;SDS011;2457;51.788;6.136;2022-08-03T09:36:38;7.67;;;1.80;;
4885;SDS011;2457;51.788;6.136;2022-08-03T09:39:03;6.50;;;1.40;;
4885;SDS011;2457;51.788;6.136;2022-08-03T09:41:32;8.93;;;1.40;;
4885;SDS011;2457;51.788;6.136;2022-08-03T09:43:59;5.53;;;1.60;;
4885;SDS011;2457;51.788;6.136;2022-08-03T09:46:26;6.90;;;1.60;;
4885;SDS011;2457;51.788;6.136;2022-08-03T09:49:07;5.53;;;1.60;;
4885;SDS011;2457;51.788;6.136;2022-08-03T09:51:24;4.23;;;1.10;;
4885;SDS011;2457;51.788;6.136;2022-08-03T09:53:51;4.33;;;1.37;;
4885;SDS011;2457;51.788;6.136;2022-08-03T09:56:20;6.80;;;1.90;;
4885;SDS011;2457;51.788;6.136;2022-08-03T09:58:47;6.27;;;1.33;;
4885;SDS011;2457;51.788;6.136;2022-08-03T10:01:16;6.10;;;1.50;;
4885;SDS011;2457;51.788;6.136;2022-08-03T10:03:44;7.90;;;1.40;;
4885;SDS011;2457;51.788;6.136;2022-08-03T10:06:18;7.40;;;1.30;;
4885;SDS011;2457;51.788;6.136;2022-08-03T10:08:41;8.07;;;1.60;;
4885;SDS011;2457;51.788;6.136;2022-08-03T10:11:09;6.40;;;1.97;;
4885;SDS011;2457;51.788;6.136;2022-08-03T10:13:36;8.00;;;1.83;;
4885;SDS011;2457;51.788;6.136;2022-08-03T10:16:04;7.00;;;1.43;;
4885;SDS011;2457;51.788;6.136;2022-08-03T10:18:32;6.33;;;1.80;;
4885;SDS011;2457;51.788;6.136;2022-08-03T10:21:02;4.77;;;1.70;;
4885;SDS011;2457;51.788;6.136;2022-08-03T10:23:33;5.43;;;1.20;;
4885;SDS011;2457;51.788;6.136;2022-08-03T10:26:01;8.90;;;1.50;;
4885;SDS011;2457;51.788;6.136;2022-08-03T10:28:39;5.53;;;1.43;;
4885;SDS011;2457;51.788;6.136;2022-08-03T10:31:01;7.50;;;1.83;;
4885;SDS011;2457;51.788;6.136;2022-08-03T10:33:30;7.73;;;1.57;;
4885;SDS011;2457;51.788;6.136;2022-08-03T10:35:57;8.33;;;1.60;;
4885;SDS011;2457;51.788;6.136;2022-08-03T10:38:29;5.53;;;1.60;;
4885;SDS011;2457;51.788;6.136;2022-08-03T10:40:57;6.73;;;1.33;;
4885;SDS011;2457;51.788;6.136;2022-08-03T10:43:26;6.60;;;1.57;;
4885;SDS011;2457;51.788;6.136;2022-08-03T10:45:54;6.27;;;1.43;;
4885;SDS011;2457;51.788;6.136;2022-08-03T10:48:22;9.40;;;1.67;;
4885;SDS011;2457;51.788;6.136;2022-08-03T10:50:50;6.33;;;1.33;;
4885;SDS011;2457;51.788;6.136;2022-08-03T10:53:32;3.80;;;1.30;;
4885;SDS011;2457;51.788;6.136;2022-08-03T10:55:46;8.57;;;1.50;;
4885;SDS011;2457;51.788;6.136;2022-08-03T11:01:04;7.50;;;1.63;;
4885;SDS011;2457;51.788;6.136;2022-08-03T11:03:32;6.77;;;1.53;;
4885;SDS011;2457;51.788;6.136;2022-08-03T11:06:17;14.53;;;2.13;;
4885;SDS011;2457;51.788;6.136;2022-08-03T11:08:40;3.27;;;1.10;;
4885;SDS011;2457;51.788;6.136;2022-08-03T11:14:02;8.17;;;1.90;;
4885;SDS011;2457;51.788;6.136;2022-08-03T11:16:31;6.40;;;1.57;;
4885;SDS011;2457;51.788;6.136;2022-08-03T11:19:02;10.00;;;1.80;;
4885;SDS011;2457;51.788;6.136;2022-08-03T11:35:09;6.30;;;1.77;;
4885;SDS011;2457;51.788;6.136;2022-08-03T11:40:32;4.60;;;1.30;;
4885;SDS011;2457;51.788;6.136;2022-08-03T11:42:59;11.00;;;1.60;;
4885;SDS011;2457;51.788;6.136;2022-08-03T11:45:27;7.40;;;2.20;;
4885;SDS011;2457;51.788;6.136;2022-08-03T11:47:54;9.23;;;1.60;;
4885;SDS011;2457;51.788;6.136;2022-08-03T11:50:23;7.97;;;2.13;;
4885;SDS011;2457;51.788;6.136;2022-08-03T11:52:50;9.50;;;2.20;;
4885;SDS011;2457;51.788;6.136;2022-08-03T11:55:18;8.53;;;2.10;;
4885;SDS011;2457;51.788;6.136;2022-08-03T11:57:46;10.53;;;2.07;;
4885;SDS011;2457;51.788;6.136;2022-08-03T12:00:24;7.77;;;1.60;;
4885;SDS011;2457;51.788;6.136;2022-08-03T12:02:55;11.50;;;1.83;;
4885;SDS011;2457;51.788;6.136;2022-08-03T12:05:32;7.40;;;1.43;;
4885;SDS011;2457;51.788;6.136;2022-08-03T12:08:00;6.17;;;1.80;;
4885;SDS011;2457;51.788;6.136;2022-08-03T12:10:28;8.03;;;1.90;;
4885;SDS011;2457;51.788;6.136;2022-08-03T12:12:55;17.80;;;2.57;;
4885;SDS011;2457;51.788;6.136;2022-08-03T12:15:24;19.00;;;2.10;;
4885;SDS011;2457;51.788;6.136;2022-08-03T12:17:51;8.90;;;2.57;;
4885;SDS011;2457;51.788;6.136;2022-08-03T12:20:22;8.40;;;1.97;;
4885;SDS011;2457;51.788;6.136;2022-08-03T12:22:50;8.50;;;1.77;;
4885;SDS011;2457;51.788;6.136;2022-08-03T12:25:25;15.13;;;2.27;;
4885;SDS011;2457;51.788;6.136;2022-08-03T12:27:49;8.60;;;2.13;;
4885;SDS011;2457;51.788;6.136;2022-08-03T12:30:17;10.53;;;1.60;;
4885;SDS011;2457;51.788;6.136;2022-08-03T12:32:44;10.50;;;1.80;;
4885;SDS011;2457;51.788;6.136;2022-08-03T12:35:21;7.07;;;1.60;;
4885;SDS011;2457;51.788;6.136;2022-08-03T12:37:51;6.40;;;1.50;;
4885;SDS011;2457;51.788;6.136;2022-08-03T12:40:24;7.03;;;1.73;;
4885;SDS011;2457;51.788;6.136;2022-08-03T12:42:52;8.50;;;1.83;;
4885;SDS011;2457;51.788;6.136;2022-08-03T12:45:27;4.90;;;1.80;;
4885;SDS011;2457;51.788;6.136;2022-08-03T12:47:57;8.17;;;2.00;;
4885;SDS011;2457;51.788;6.136;2022-08-03T12:52:53;6.97;;;1.67;;
4885;SDS011;2457;51.788;6.136;2022-08-03T12:55:21;9.63;;;2.03;;
4885;SDS011;2457;51.788;6.136;2022-08-03T12:57:48;8.27;;;1.97;;
4885;SDS011;2457;51.788;6.136;2022-08-03T13:00:17;8.20;;;2.10;;
4885;SDS011;2457;51.788;6.136;2022-08-03T13:02:44;6.40;;;1.73;;
4885;SDS011;2457;51.788;6.136;2022-08-03T13:05:12;7.60;;;1.57;;
4885;SDS011;2457;51.788;6.136;2022-08-03T13:07:40;10.50;;;1.70;;
4885;SDS011;2457;51.788;6.136;2022-08-03T13:10:08;9.83;;;1.67;;
4885;SDS011;2457;51.788;6.136;2022-08-03T13:12:45;9.20;;;1.47;;
4885;SDS011;2457;51.788;6.136;2022-08-03T13:15:13;13.00;;;1.77;;
4885;SDS011;2457;51.788;6.136;2022-08-03T13:17:40;5.67;;;1.63;;
4885;SDS011;2457;51.788;6.136;2022-08-03T13:20:08;10.50;;;1.90;;
4885;SDS011;2457;51.788;6.136;2022-08-03T13:22:35;10.20;;;1.20;;
4885;SDS011;2457;51.788;6.136;2022-08-03T13:25:03;10.30;;;1.47;;
4885;SDS011;2457;51.788;6.136;2022-08-03T13:27:30;7.70;;;1.47;;
4885;SDS011;2457;51.788;6.136;2022-08-03T13:29:58;10.93;;;2.00;;
4885;SDS011;2457;51.788;6.136;2022-08-03T13:32:25;7.47;;;1.73;;
4885;SDS011;2457;51.788;6.136;2022-08-03T13:34:52;6.63;;;1.40;;
4885;SDS011;2457;51.788;6.136;2022-08-03T13:37:20;6.10;;;1.53;;
4885;SDS011;2457;51.788;6.136;2022-08-03T13:39:47;8.17;;;1.60;;
4885;SDS011;2457;51.788;6.136;2022-08-03T13:42:14;6.83;;;1.60;;
4885;SDS011;2457;51.788;6.136;2022-08-03T13:44:41;12.47;;;1.80;;
4885;SDS011;2457;51.788;6.136;2022-08-03T13:47:09;6.83;;;1.70;;
4885;SDS011;2457;51.788;6.136;2022-08-03T13:49:36;6.40;;;1.30;;
4885;SDS011;2457;51.788;6.136;2022-08-03T13:52:03;5.67;;;1.53;;
4885;SDS011;2457;51.788;6.136;2022-08-03T13:54:31;10.13;;;1.80;;
4885;SDS011;2457;51.788;6.136;2022-08-03T13:56:59;6.43;;;1.60;;
4885;SDS011;2457;51.788;6.136;2022-08-03T13:59:27;4.00;;;1.33;;
4885;SDS011;2457;51.788;6.136;2022-08-03T14:01:54;7.27;;;1.30;;
4885;SDS011;2457;51.788;6.136;2022-08-03T14:04:21;10.20;;;1.77;;
4885;SDS011;2457;51.788;6.136;2022-08-03T14:06:49;16.27;;;1.80;;
4885;SDS011;2457;51.788;6.136;2022-08-03T14:09:16;7.23;;;1.70;;
4885;SDS011;2457;51.788;6.136;2022-08-03T14:11:43;6.50;;;1.90;;
4885;SDS011;2457;51.788;6.136;2022-08-03T14:14:11;4.80;;;1.67;;
4885;SDS011;2457;51.788;6.136;2022-08-03T14:16:38;3.83;;;1.20;;
4885;SDS011;2457;51.788;6.136;2022-08-03T14:19:06;4.20;;;1.63;;
4885;SDS011;2457;51.788;6.136;2022-08-03T14:21:33;6.90;;;1.50;;
4885;SDS011;2457;51.788;6.136;2022-08-03T14:24:00;6.13;;;1.57;;
4885;SDS011;2457;51.788;6.136;2022-08-03T14:26:28;18.07;;;2.00;;
4885;SDS011;2457;51.788;6.136;2022-08-03T14:28:55;5.53;;;1.30;;
4885;SDS011;2457;51.788;6.136;2022-08-03T14:31:23;4.37;;;1.37;;
4885;SDS011;2457;51.788;6.136;2022-08-03T14:33:50;8.20;;;1.97;;
4885;SDS011;2457;51.788;6.136;2022-08-03T14:36:17;3.70;;;1.17;;
4885;SDS011;2457;51.788;6.136;2022-08-03T14:38:44;7.30;;;1.40;;
4885;SDS011;2457;51.788;6.136;2022-08-03T14:41:12;8.30;;;1.40;;
4885;SDS011;2457;51.788;6.136;2022-08-03T14:43:39;9.27;;;1.80;;
4885;SDS011;2457;51.788;6.136;2022-08-03T14:46:06;6.23;;;1.53;;
4885;SDS011;2457;51.788;6.136;2022-08-03T14:48:33;3.27;;;1.10;;
4885;SDS011;2457;51.788;6.136;2022-08-03T14:51:01;4.60;;;1.60;;
4885;SDS011;2457;51.788;6.136;2022-08-03T14:53:29;3.70;;;1.33;;
4885;SDS011;2457;51.788;6.136;2022-08-03T14:55:56;3.80;;;1.60;;
4885;SDS011;2457;51.788;6.136;2022-08-03T14:58:23;8.77;;;1.67;;
4885;SDS011;2457;51.788;6.136;2022-08-03T15:00:52;6.20;;;1.47;;
4885;SDS011;2457;51.788;6.136;2022-08-03T15:03:20;8.30;;;1.40;;
4885;SDS011;2457;51.788;6.136;2022-08-03T15:05:51;5.83;;;1.60;;
4885;SDS011;2457;51.788;6.136;2022-08-03T15:08:18;5.20;;;1.40;;
4885;SDS011;2457;51.788;6.136;2022-08-03T15:10:46;8.60;;;1.97;;
4885;SDS011;2457;51.788;6.136;2022-08-03T15:13:14;3.73;;;1.60;;
4885;SDS011;2457;51.788;6.136;2022-08-03T15:15:41;5.40;;;1.70;;
4885;SDS011;2457;51.788;6.136;2022-08-03T15:18:08;5.73;;;1.60;;
4885;SDS011;2457;51.788;6.136;2022-08-03T15:20:36;5.27;;;1.57;;
4885;SDS011;2457;51.788;6.136;2022-08-03T15:23:03;4.93;;;1.33;;
4885;SDS011;2457;51.788;6.136;2022-08-03T15:25:30;4.00;;;1.30;;
4885;SDS011;2457;51.788;6.136;2022-08-03T15:27:57;8.17;;;1.70;;
4885;SDS011;2457;51.788;6.136;2022-08-03T15:30:25;5.83;;;1.50;;
4885;SDS011;2457;51.788;6.136;2022-08-03T15:32:52;6.27;;;1.37;;
4885;SDS011;2457;51.788;6.136;2022-08-03T15:35:19;7.80;;;1.73;;
4885;SDS011;2457;51.788;6.136;2022-08-03T15:37:46;4.87;;;1.43;;
4885;SDS011;2457;51.788;6.136;2022-08-03T15:40:14;5.53;;;1.20;;
4885;SDS011;2457;51.788;6.136;2022-08-03T15:42:41;5.67;;;1.80;;
4885;SDS011;2457;51.788;6.136;2022-08-03T15:45:08;3.87;;;1.30;;
4885;SDS011;2457;51.788;6.136;2022-08-03T15:47:36;5.90;;;1.40;;
4885;SDS011;2457;51.788;6.136;2022-08-03T15:50:04;4.90;;;1.50;;
4885;SDS011;2457;51.788;6.136;2022-08-03T15:52:31;13.00;;;1.53;;
4885;SDS011;2457;51.788;6.136;2022-08-03T15:54:58;5.50;;;1.50;;